createdAt,value
2023-05-19T00:00:32.133Z,1012.23
2023-05-19T00:01:31.914Z,1012.22
2023-05-19T00:02:31.940Z,1012.22
2023-05-19T00:03:31.998Z,1012.21
2023-05-19T00:04:31.869Z,1012.22
2023-05-19T00:05:31.915Z,1012.21
2023-05-19T00:06:31.995Z,1012.23
2023-05-19T00:07:31.849Z,1012.21
2023-05-19T00:08:31.827Z,1012.23
2023-05-19T00:09:31.825Z,1012.22
2023-05-19T00:10:32.235Z,1012.21
2023-05-19T00:11:31.867Z,1012.21
2023-05-19T00:12:31.817Z,1012.21
2023-05-19T00:13:31.808Z,1012.21
2023-05-19T00:14:31.775Z,1012.22
2023-05-19T00:15:31.837Z,1012.21
2023-05-19T00:16:31.774Z,1012.21
2023-05-19T00:17:31.762Z,1012.22
2023-05-19T00:18:31.738Z,1012.23
2023-05-19T00:19:31.728Z,1012.22
2023-05-19T00:20:31.955Z,1012.22
2023-05-19T00:21:31.706Z,1012.23
2023-05-19T00:22:31.678Z,1012.24
2023-05-19T00:23:31.675Z,1012.25
2023-05-19T00:24:31.670Z,1012.25
2023-05-19T00:25:31.664Z,1012.24
2023-05-19T00:26:31.633Z,1012.25
2023-05-19T00:27:31.635Z,1012.25
2023-05-19T00:28:31.626Z,1012.26
2023-05-19T00:29:31.620Z,1012.28
2023-05-19T00:30:31.740Z,1012.25
2023-05-19T00:31:31.755Z,1012.24
2023-05-19T00:32:31.609Z,1012.27
2023-05-19T00:33:31.607Z,1012.25
2023-05-19T00:34:31.546Z,1012.21
2023-05-19T00:35:31.548Z,1012.24
2023-05-19T00:36:31.557Z,1012.22
2023-05-19T00:37:31.550Z,1012.21
2023-05-19T00:38:31.492Z,1012.21
2023-05-19T00:39:31.510Z,1012.18
2023-05-19T00:40:31.707Z,1012.17
2023-05-19T00:41:31.490Z,1012.18
2023-05-19T00:42:31.476Z,1012.16
2023-05-19T00:43:31.488Z,1012.18
2023-05-19T00:44:31.444Z,1012.18
2023-05-19T00:45:31.434Z,1012.16
2023-05-19T00:46:31.465Z,1012.14
2023-05-19T00:47:31.497Z,1012.14
2023-05-19T00:48:31.382Z,1012.11
2023-05-19T00:49:31.419Z,1012.10
2023-05-19T00:50:31.554Z,1012.08
2023-05-19T00:51:31.379Z,1012.08
2023-05-19T00:52:31.371Z,1012.06
2023-05-19T00:53:31.360Z,1012.08
2023-05-19T00:54:31.324Z,1012.06
2023-05-19T00:55:31.372Z,1012.05
2023-05-19T00:56:31.308Z,1012.06
2023-05-19T00:57:31.363Z,1012.03
2023-05-19T00:58:31.386Z,1012.02
2023-05-19T00:59:31.306Z,1012.01
2023-05-19T01:00:31.564Z,1012.00
2023-05-19T01:01:31.303Z,1012.01
2023-05-19T01:02:31.308Z,1012.01
2023-05-19T01:03:31.541Z,1011.98
2023-05-19T01:04:31.270Z,1011.99
2023-05-19T01:05:31.234Z,1012.01
2023-05-19T01:06:31.219Z,1012.00
2023-05-19T01:07:31.212Z,1011.98
2023-05-19T01:08:31.188Z,1012.00
2023-05-19T01:09:31.185Z,1011.98
2023-05-19T01:10:31.380Z,1011.99
2023-05-19T01:11:31.178Z,1011.98
2023-05-19T01:12:31.153Z,1011.96
2023-05-19T01:13:31.163Z,1011.95
2023-05-19T01:14:31.127Z,1011.95
2023-05-19T01:15:31.147Z,1011.95
2023-05-19T01:16:31.156Z,1011.89
2023-05-19T01:17:31.135Z,1011.93
2023-05-19T01:18:31.092Z,1011.92
2023-05-19T01:19:31.115Z,1011.91
2023-05-19T01:20:31.344Z,1011.91
2023-05-19T01:21:31.138Z,1011.92
2023-05-19T01:22:31.068Z,1011.92
2023-05-19T01:23:31.110Z,1011.89
2023-05-19T01:24:31.010Z,1011.90
2023-05-19T01:25:31.022Z,1011.89
2023-05-19T01:26:31.001Z,1011.91
2023-05-19T01:27:31.014Z,1011.93
2023-05-19T01:28:30.972Z,1011.93
2023-05-19T01:29:30.976Z,1011.93
2023-05-19T06:01:04.454Z,1011.97
2023-05-19T06:02:05.476Z,1011.97
2023-05-19T06:03:05.592Z,1011.96
2023-05-19T06:04:05.457Z,1011.93
2023-05-19T06:05:05.434Z,1011.96
2023-05-19T06:06:05.599Z,1011.96
2023-05-19T06:07:05.460Z,1011.96
2023-05-19T06:08:05.460Z,1011.97
2023-05-19T06:09:05.416Z,1011.96
2023-05-19T06:10:05.341Z,1011.94
2023-05-19T06:11:05.321Z,1011.94
2023-05-19T06:12:05.331Z,1011.94
2023-05-19T06:13:05.381Z,1011.95
2023-05-19T06:14:05.349Z,1011.95
2023-05-19T06:15:05.279Z,1011.94
2023-05-19T06:16:05.298Z,1011.93
2023-05-19T06:17:05.282Z,1011.91
2023-05-19T06:18:05.350Z,1011.93
2023-05-19T06:19:05.351Z,1011.93
2023-05-19T06:20:05.249Z,1011.91
2023-05-19T06:21:05.212Z,1011.90
2023-05-19T06:22:05.224Z,1011.89
2023-05-19T06:23:05.182Z,1011.88
2023-05-19T06:24:05.218Z,1011.90
2023-05-19T06:25:05.212Z,1011.87
2023-05-19T06:26:05.187Z,1011.87
2023-05-19T06:27:05.160Z,1011.89
2023-05-19T06:28:05.160Z,1011.87
2023-05-19T06:29:05.186Z,1011.92
2023-05-19T06:30:05.133Z,1011.90
2023-05-19T06:31:05.146Z,1011.92
2023-05-19T06:32:05.104Z,1011.93
2023-05-19T06:33:05.130Z,1011.92
2023-05-19T06:34:05.081Z,1011.93
2023-05-19T06:35:05.078Z,1011.97
2023-05-19T06:36:05.103Z,1011.97
2023-05-19T06:37:05.061Z,1011.97
2023-05-19T06:38:05.071Z,1011.97
2023-05-19T06:39:05.022Z,1011.98
2023-05-19T06:40:05.033Z,1011.99
2023-05-19T06:41:05.013Z,1012.00
2023-05-19T06:42:05.056Z,1011.98
2023-05-19T06:43:05.017Z,1012.00
2023-05-19T06:44:04.989Z,1011.98
2023-05-19T06:45:05.032Z,1011.98
2023-05-19T06:46:04.969Z,1011.99
2023-05-19T06:47:04.971Z,1011.96
2023-05-19T06:48:04.990Z,1011.99
2023-05-19T06:49:04.921Z,1012.00
2023-05-19T06:50:04.960Z,1011.97
2023-05-19T06:51:04.903Z,1011.99
2023-05-19T06:52:04.909Z,1011.97
2023-05-19T06:53:04.873Z,1011.94
2023-05-19T06:54:04.921Z,1011.96
2023-05-19T06:55:04.849Z,1011.95
2023-05-19T06:56:04.883Z,1011.96
2023-05-19T06:57:04.825Z,1011.92
2023-05-19T06:58:04.828Z,1011.90
2023-05-19T06:59:04.817Z,1011.88
2023-05-19T07:00:04.837Z,1011.87
2023-05-19T07:01:04.794Z,1011.85
2023-05-19T07:02:04.888Z,1011.85
2023-05-19T07:03:04.850Z,1011.83
2023-05-19T07:04:04.819Z,1011.81
2023-05-19T07:05:04.755Z,1011.80
2023-05-19T07:06:06.395Z,1011.79
2023-05-19T07:07:04.716Z,1011.81
2023-05-19T07:08:04.767Z,1011.79
2023-05-19T07:09:04.703Z,1011.80
2023-05-19T07:10:04.720Z,1011.84
2023-05-19T07:11:04.686Z,1011.82
2023-05-19T07:12:04.689Z,1011.80
2023-05-19T07:13:04.673Z,1011.78
2023-05-19T07:14:04.678Z,1011.76
2023-05-19T07:15:04.642Z,1011.76
2023-05-19T07:16:04.664Z,1011.76
2023-05-19T07:17:04.632Z,1011.74
2023-05-19T07:18:04.651Z,1011.71
2023-05-19T07:19:04.641Z,1011.69
2023-05-19T07:20:04.623Z,1011.69
2023-05-19T07:21:04.593Z,1011.68
2023-05-19T07:22:04.594Z,1011.67
2023-05-19T07:23:04.584Z,1011.65
2023-05-19T07:24:04.610Z,1011.65
2023-05-19T07:25:04.538Z,1011.66
2023-05-19T07:26:04.539Z,1011.63
2023-05-19T07:27:04.499Z,1011.63
2023-05-19T07:28:04.527Z,1011.62
2023-05-19T07:29:04.482Z,1011.61
2023-05-19T07:30:04.545Z,1011.60
2023-05-19T07:31:04.473Z,1011.59
2023-05-19T07:32:04.539Z,1011.57
2023-05-19T07:33:04.483Z,1011.55
2023-05-19T07:34:04.449Z,1011.55
2023-05-19T07:35:04.426Z,1011.56
2023-05-19T07:36:04.450Z,1011.54
2023-05-19T07:37:04.392Z,1011.57
2023-05-19T07:38:04.417Z,1011.58
2023-05-19T07:39:04.424Z,1011.58
2023-05-19T07:40:04.391Z,1011.61
2023-05-19T07:41:04.383Z,1011.60
2023-05-19T07:42:04.402Z,1011.58
2023-05-19T07:43:04.330Z,1011.59
2023-05-19T07:44:04.335Z,1011.54
2023-05-19T07:45:04.310Z,1011.54
2023-05-19T07:46:04.384Z,1011.52
2023-05-19T07:47:04.295Z,1011.53
2023-05-19T07:48:04.336Z,1011.53
2023-05-19T07:49:04.284Z,1011.48
2023-05-19T07:50:04.309Z,1011.48
2023-05-19T07:51:04.258Z,1011.44
2023-05-19T07:52:04.259Z,1011.43
2023-05-19T07:53:04.245Z,1011.44
2023-05-19T07:54:04.220Z,1011.41
2023-05-19T07:55:04.226Z,1011.41
2023-05-19T07:56:04.185Z,1011.41
2023-05-19T07:57:04.254Z,1011.44
2023-05-19T07:58:04.180Z,1011.40
2023-05-19T07:59:04.175Z,1011.40
2023-05-19T08:00:04.154Z,1011.40
2023-05-19T08:01:04.175Z,1011.41
2023-05-19T08:02:04.151Z,1011.40
2023-05-19T08:03:04.247Z,1011.40
2023-05-19T08:04:04.232Z,1011.37
2023-05-19T08:05:04.110Z,1011.36
2023-05-19T08:06:04.105Z,1011.34
2023-05-19T08:07:04.117Z,1011.32
2023-05-19T08:08:04.062Z,1011.34
2023-05-19T08:09:04.100Z,1011.35
2023-05-19T08:10:04.053Z,1011.33
2023-05-19T08:11:04.114Z,1011.31
2023-05-19T08:12:04.019Z,1011.30
2023-05-19T08:13:04.045Z,1011.30
2023-05-19T08:14:04.091Z,1011.29
2023-05-19T08:15:04.019Z,1011.29
2023-05-19T08:16:04.056Z,1011.28
2023-05-19T08:17:03.982Z,1011.32
2023-05-19T08:18:03.994Z,1011.29
2023-05-19T08:19:04.014Z,1011.30
2023-05-19T08:20:03.972Z,1011.28
2023-05-19T08:21:04.106Z,1011.28
2023-05-19T08:22:03.923Z,1011.28
2023-05-19T08:23:04.024Z,1011.28
2023-05-19T08:24:03.897Z,1011.27
2023-05-19T08:25:04.036Z,1011.27
2023-05-19T08:26:03.893Z,1011.24
2023-05-19T08:27:03.936Z,1011.24
2023-05-19T08:28:03.869Z,1011.23
2023-05-19T08:29:03.866Z,1011.23
2023-05-19T08:30:03.838Z,1011.24
2023-05-19T08:31:03.921Z,1011.21
2023-05-19T08:32:03.924Z,1011.20
2023-05-19T08:33:03.865Z,1011.19
2023-05-19T08:34:03.818Z,1011.15
2023-05-19T08:35:03.794Z,1011.16
2023-05-19T08:36:03.785Z,1011.18
2023-05-19T08:37:03.779Z,1011.16
2023-05-19T08:38:03.867Z,1011.14
2023-05-19T08:39:03.755Z,1011.18
2023-05-19T08:40:03.727Z,1011.16
2023-05-19T08:41:03.750Z,1011.14
2023-05-19T08:42:03.719Z,1011.14
2023-05-19T08:43:03.705Z,1011.14
2023-05-19T08:44:03.731Z,1011.11
2023-05-19T08:45:03.685Z,1011.10
2023-05-19T08:46:03.660Z,1011.09
2023-05-19T08:47:03.794Z,1011.14
2023-05-19T08:48:03.656Z,1011.08
2023-05-19T08:49:03.687Z,1011.07
2023-05-19T08:50:03.651Z,1011.06
2023-05-19T08:51:03.620Z,1011.04
2023-05-19T08:52:03.651Z,1011.02
2023-05-19T08:53:03.596Z,1011.00
2023-05-19T08:54:03.683Z,1010.97
2023-05-19T08:55:03.576Z,1010.96
2023-05-19T08:56:03.572Z,1010.97
2023-05-19T08:57:03.614Z,1010.95
2023-05-19T08:58:03.533Z,1010.92
2023-05-19T08:59:03.538Z,1010.94
2023-05-19T09:00:03.500Z,1010.93
2023-05-19T09:01:03.572Z,1010.93
2023-05-19T09:02:03.514Z,1010.92
2023-05-19T09:03:22.669Z,1010.91
2023-05-19T09:04:03.634Z,1010.88
2023-05-19T09:05:03.531Z,1010.88
2023-05-19T09:06:03.473Z,1010.88
2023-05-19T09:07:03.485Z,1010.86
2023-05-19T09:08:03.432Z,1010.82
2023-05-19T09:09:03.472Z,1010.88
2023-05-19T09:10:03.406Z,1010.83
2023-05-19T09:11:03.407Z,1010.82
2023-05-19T09:12:03.405Z,1010.79
2023-05-19T09:13:03.422Z,1010.81
2023-05-19T09:14:03.355Z,1010.80
2023-05-19T09:15:03.357Z,1010.79
2023-05-19T09:16:03.377Z,1010.76
2023-05-19T09:17:03.438Z,1010.69
2023-05-19T09:18:03.443Z,1010.71
2023-05-19T09:19:03.368Z,1010.68
2023-05-19T09:20:03.338Z,1010.69
2023-05-19T09:21:03.466Z,1010.73
2023-05-19T09:22:03.387Z,1010.71
2023-05-19T09:23:03.282Z,1010.72
2023-05-19T09:24:03.273Z,1010.66
2023-05-19T09:25:03.280Z,1010.65
2023-05-19T09:26:03.232Z,1010.68
2023-05-19T09:27:03.282Z,1010.63
2023-05-19T09:28:03.210Z,1010.65
2023-05-19T09:29:03.238Z,1010.65
2023-05-19T09:30:03.193Z,1010.67
2023-05-19T09:31:03.241Z,1010.62
2023-05-19T09:32:03.265Z,1010.58
2023-05-19T09:33:03.194Z,1010.58
2023-05-19T09:34:03.140Z,1010.60
2023-05-19T09:35:03.185Z,1010.58
2023-05-19T09:36:03.143Z,1010.60
2023-05-19T09:37:03.159Z,1010.53
2023-05-19T09:38:03.094Z,1010.53
2023-05-19T09:39:03.111Z,1010.63
2023-05-19T09:40:03.108Z,1010.61
2023-05-19T09:41:03.105Z,1010.55
2023-05-19T09:42:03.067Z,1010.54
2023-05-19T09:43:03.068Z,1010.54
2023-05-19T09:44:03.060Z,1010.53
2023-05-19T09:45:03.038Z,1010.49
2023-05-19T09:46:03.064Z,1010.47
2023-05-19T09:47:03.048Z,1010.49
2023-05-19T09:48:03.114Z,1010.50
2023-05-19T09:49:03.009Z,1010.46
2023-05-19T09:50:02.988Z,1010.45
2023-05-19T09:51:02.977Z,1010.43
2023-05-19T09:52:02.982Z,1010.35
2023-05-19T09:53:02.970Z,1010.35
2023-05-19T09:54:02.949Z,1010.38
2023-05-19T09:55:02.987Z,1010.36
2023-05-19T09:56:02.904Z,1010.40
2023-05-19T09:57:02.915Z,1010.36
2023-05-19T09:58:02.888Z,1010.35
2023-05-19T09:59:02.905Z,1010.31
2023-05-19T10:00:02.875Z,1010.36
2023-05-19T10:01:02.912Z,1010.29
2023-05-19T10:02:03.223Z,1010.27
2023-05-19T10:03:02.938Z,1010.24
2023-05-19T10:04:03.765Z,1010.23
2023-05-19T10:05:02.901Z,1010.17
2023-05-19T10:06:02.900Z,1010.25
2023-05-19T10:07:02.811Z,1010.20
2023-05-19T10:08:02.788Z,1010.28
2023-05-19T10:09:02.774Z,1010.30
2023-05-19T10:10:02.757Z,1010.23
2023-05-19T10:11:02.759Z,1010.20
2023-05-19T10:12:02.789Z,1010.22
2023-05-19T10:13:02.737Z,1010.23
2023-05-19T10:14:02.710Z,1010.24
2023-05-19T10:15:02.754Z,1010.23
2023-05-19T10:16:02.995Z,1010.18
2023-05-19T10:17:02.839Z,1010.15
2023-05-19T10:18:02.728Z,1010.18
2023-05-19T10:19:02.759Z,1010.22
2023-05-19T10:20:02.683Z,1010.18
2023-05-19T10:21:02.776Z,1010.18
2023-05-19T10:22:02.669Z,1010.16
2023-05-19T10:23:02.632Z,1010.16
2023-05-19T10:24:02.637Z,1010.21
2023-05-19T10:25:02.609Z,1010.23
2023-05-19T10:26:02.589Z,1010.18
2023-05-19T10:27:02.643Z,1010.26
2023-05-19T10:28:02.576Z,1010.23
2023-05-19T10:29:02.581Z,1010.26
2023-05-19T10:30:02.577Z,1010.21
2023-05-19T10:31:02.644Z,1010.18
2023-05-19T10:32:02.602Z,1010.17
2023-05-19T10:33:02.581Z,1010.16
2023-05-19T10:34:02.511Z,1010.14
2023-05-19T10:35:02.512Z,1010.12
2023-05-19T10:36:02.515Z,1010.05
2023-05-19T10:37:02.514Z,1010.07
2023-05-19T10:38:02.507Z,1010.10
2023-05-19T10:39:02.485Z,1010.02
2023-05-19T10:40:02.446Z,1010.08
2023-05-19T10:41:03.371Z,1010.07
2023-05-19T10:42:02.445Z,1010.04
2023-05-19T10:43:02.420Z,1010.07
2023-05-19T10:44:02.427Z,1010.02
2023-05-19T10:45:02.394Z,1009.98
2023-05-19T10:46:02.431Z,1010.03
2023-05-19T10:47:02.419Z,1010.05
2023-05-19T10:48:02.450Z,1010.04
2023-05-19T10:49:02.354Z,1009.98
2023-05-19T10:50:02.444Z,1009.95
2023-05-19T10:51:02.470Z,1009.91
2023-05-19T10:52:02.371Z,1009.96
2023-05-19T10:53:02.322Z,1009.91
2023-05-19T10:54:02.290Z,1009.87
2023-05-19T10:55:02.306Z,1009.89
2023-05-19T10:56:02.347Z,1009.91
2023-05-19T10:57:02.317Z,1009.91
2023-05-19T10:58:02.249Z,1009.90
2023-05-19T10:59:02.294Z,1009.88
2023-05-19T11:00:02.228Z,1009.89
2023-05-19T11:01:02.287Z,1009.87
2023-05-19T11:02:02.405Z,1009.87
2023-05-19T11:03:02.246Z,1009.87
2023-05-19T11:04:02.223Z,1009.89
2023-05-19T11:05:02.192Z,1009.86
2023-05-19T11:06:02.209Z,1009.83
2023-05-19T11:07:02.179Z,1009.81
2023-05-19T11:08:02.264Z,1009.80
2023-05-19T11:09:02.165Z,1009.80
2023-05-19T11:10:02.130Z,1009.83
2023-05-19T11:11:02.210Z,1009.89
2023-05-19T11:12:02.114Z,1009.88
2023-05-19T11:13:02.108Z,1009.90
2023-05-19T11:14:02.110Z,1009.89
2023-05-19T11:15:02.089Z,1009.88
2023-05-19T11:16:02.142Z,1009.91
2023-05-19T11:17:02.105Z,1009.89
2023-05-19T11:18:02.109Z,1009.97
2023-05-19T11:19:02.102Z,1009.89
2023-05-19T11:20:02.009Z,1009.89
2023-05-19T11:21:02.274Z,1009.90
2023-05-19T11:22:02.061Z,1009.85
2023-05-19T11:23:02.041Z,1009.83
2023-05-19T11:24:02.107Z,1009.86
2023-05-19T11:25:01.989Z,1009.81
2023-05-19T11:26:02.039Z,1009.86
2023-05-19T11:27:01.988Z,1009.85
2023-05-19T11:28:01.959Z,1009.88
2023-05-19T11:29:01.925Z,1009.81
2023-05-19T11:30:02.127Z,1009.81
2023-05-19T11:31:02.197Z,1009.77
2023-05-19T11:32:01.960Z,1009.76
2023-05-19T11:33:01.940Z,1009.75
2023-05-19T11:34:01.895Z,1009.75
2023-05-19T11:35:02.005Z,1009.79
2023-05-19T11:36:01.948Z,1009.77
2023-05-19T11:37:01.871Z,1009.78
2023-05-19T11:38:01.837Z,1009.73
2023-05-19T11:39:01.856Z,1009.69
2023-05-19T11:40:01.852Z,1009.69
2023-05-19T11:41:02.101Z,1009.70
2023-05-19T11:42:01.780Z,1009.69
2023-05-19T11:43:01.784Z,1009.60
2023-05-19T11:44:01.778Z,1009.61
2023-05-19T11:45:01.795Z,1009.65
2023-05-19T11:46:01.821Z,1009.60
2023-05-19T11:47:01.740Z,1009.63
2023-05-19T11:48:03.121Z,1009.47
2023-05-19T11:49:01.721Z,1009.54
2023-05-19T11:50:01.686Z,1009.50
2023-05-19T11:51:01.751Z,1009.45
2023-05-19T11:52:01.678Z,1009.47
2023-05-19T11:53:01.751Z,1009.42
2023-05-19T11:54:01.676Z,1009.48
2023-05-19T11:55:01.672Z,1009.46
2023-05-19T11:56:01.666Z,1009.49
2023-05-19T11:57:01.649Z,1009.51
2023-05-19T11:58:03.924Z,1009.46
2023-05-19T11:59:01.620Z,1009.40
2023-05-19T12:00:01.582Z,1009.43
2023-05-19T12:01:01.617Z,1009.41
2023-05-19T12:02:01.565Z,1009.41
2023-05-19T12:03:01.698Z,1009.35
2023-05-19T12:04:01.562Z,1009.32
2023-05-19T12:05:01.589Z,1009.38
2023-05-19T12:06:01.564Z,1009.34
2023-05-19T12:07:01.524Z,1009.32
2023-05-19T12:08:01.531Z,1009.37
2023-05-19T12:09:01.503Z,1009.33
2023-05-19T12:10:01.547Z,1009.36
2023-05-19T12:11:01.630Z,1009.33
2023-05-19T12:12:01.566Z,1009.37
2023-05-19T12:13:01.469Z,1009.38
2023-05-19T12:14:01.481Z,1009.35
2023-05-19T12:15:01.445Z,1009.36
2023-05-19T12:16:01.568Z,1009.34
2023-05-19T12:17:01.399Z,1009.35
2023-05-19T12:18:01.460Z,1009.35
2023-05-19T12:19:01.401Z,1009.34
2023-05-19T12:20:01.395Z,1009.35
2023-05-19T12:21:01.449Z,1009.38
2023-05-19T12:22:02.261Z,1009.30
2023-05-19T12:23:01.358Z,1009.33
2023-05-19T12:24:01.368Z,1009.36
2023-05-19T12:25:01.323Z,1009.29
2023-05-19T12:26:01.347Z,1009.28
2023-05-19T12:27:01.314Z,1009.27
2023-05-19T12:28:01.324Z,1009.24
2023-05-19T12:29:01.273Z,1009.21
2023-05-19T12:30:01.293Z,1009.26
2023-05-19T12:31:01.277Z,1009.24
2023-05-19T12:32:01.377Z,1009.27
2023-05-19T12:33:01.265Z,1009.25
2023-05-19T12:34:01.226Z,1009.25
2023-05-19T12:35:01.209Z,1009.23
2023-05-19T12:36:01.269Z,1009.23
2023-05-19T12:37:01.199Z,1009.24
2023-05-19T12:38:01.231Z,1009.23
2023-05-19T12:39:01.184Z,1009.19
2023-05-19T12:40:01.192Z,1009.23
2023-05-19T12:41:01.160Z,1009.19
2023-05-19T12:42:01.163Z,1009.12
2023-05-19T12:43:01.141Z,1009.20
2023-05-19T12:44:01.147Z,1009.19
2023-05-19T12:45:03.137Z,1009.18
2023-05-19T12:46:01.217Z,1009.17
2023-05-19T12:47:01.101Z,1009.19
2023-05-19T12:48:01.153Z,1009.11
2023-05-19T12:49:01.101Z,1009.14
2023-05-19T12:50:01.083Z,1009.14
2023-05-19T12:51:01.096Z,1009.18
2023-05-19T12:52:02.574Z,1009.17
2023-05-19T12:53:01.036Z,1009.12
2023-05-19T12:54:01.041Z,1009.08
2023-05-19T12:55:01.034Z,1009.07
2023-05-19T12:56:01.013Z,1009.07
2023-05-19T12:57:01.016Z,1009.09
2023-05-19T12:58:01.021Z,1009.03
2023-05-19T12:59:00.968Z,1009.05
2023-05-19T13:00:01.021Z,1009.07
2023-05-19T13:01:01.077Z,1009.08
2023-05-19T13:02:01.988Z,1009.10
2023-05-19T13:03:01.017Z,1009.08
2023-05-19T13:04:02.759Z,1009.08
2023-05-19T13:05:00.906Z,1009.06
2023-05-19T13:06:00.942Z,1009.08
2023-05-19T13:07:00.890Z,1009.02
2023-05-19T13:08:00.879Z,1009.10
2023-05-19T13:09:00.898Z,1009.06
2023-05-19T13:10:00.853Z,1009.04
2023-05-19T13:11:00.927Z,1009.04
2023-05-19T13:12:01.437Z,1009.04
2023-05-19T13:13:00.817Z,1009.03
2023-05-19T13:14:00.813Z,1009.04
2023-05-19T13:15:00.798Z,1009.00
2023-05-19T13:16:00.792Z,1008.98
2023-05-19T13:17:00.898Z,1008.94
2023-05-19T13:18:00.806Z,1008.94
2023-05-19T13:19:01.478Z,1008.92
2023-05-19T13:20:00.844Z,1008.91
2023-05-19T13:21:00.803Z,1008.92
2023-05-19T13:22:00.778Z,1008.93
2023-05-19T13:23:00.705Z,1008.87
2023-05-19T13:24:00.701Z,1008.88
2023-05-19T13:25:00.678Z,1008.84
2023-05-19T13:26:00.706Z,1008.85
2023-05-19T13:27:00.671Z,1008.84
2023-05-19T13:28:00.669Z,1008.84
2023-05-19T13:29:00.637Z,1008.82
2023-05-19T13:30:00.671Z,1008.81
2023-05-19T13:31:00.734Z,1008.80
2023-05-19T13:32:01.645Z,1008.81
2023-05-19T13:33:00.615Z,1008.81
2023-05-19T13:34:00.603Z,1008.78
2023-05-19T13:35:00.584Z,1008.75
2023-05-19T13:36:00.614Z,1008.71
2023-05-19T13:37:00.592Z,1008.74
2023-05-19T13:38:00.617Z,1008.75
2023-05-19T13:39:00.540Z,1008.73
2023-05-19T13:40:01.345Z,1008.68
2023-05-19T13:41:00.545Z,1008.71
2023-05-19T13:42:00.528Z,1008.74
2023-05-19T13:43:00.500Z,1008.72
2023-05-19T13:44:00.533Z,1008.72
2023-05-19T13:45:00.475Z,1008.76
2023-05-19T13:46:00.555Z,1008.79
2023-05-19T13:47:00.498Z,1008.79
2023-05-19T13:48:00.550Z,1008.74
2023-05-19T13:49:00.446Z,1008.71
2023-05-19T13:50:00.461Z,1008.69
2023-05-19T13:51:00.512Z,1008.68
2023-05-19T13:52:00.426Z,1008.71
2023-05-19T13:53:00.410Z,1008.70
2023-05-19T13:54:00.425Z,1008.73
2023-05-19T13:55:00.390Z,1008.72
2023-05-19T13:56:00.418Z,1008.66
2023-05-19T13:57:00.354Z,1008.66
2023-05-19T13:58:00.355Z,1008.68
2023-05-19T13:59:00.368Z,1008.69
2023-05-19T14:00:02.810Z,1008.70
2023-05-19T14:01:00.550Z,1008.69
2023-05-19T14:02:00.416Z,1008.67
2023-05-19T14:03:00.532Z,1008.69
2023-05-19T14:04:01.213Z,1008.61
2023-05-19T14:05:00.283Z,1008.67
2023-05-19T14:06:00.306Z,1008.58
2023-05-19T14:07:00.265Z,1008.57
2023-05-19T14:08:00.261Z,1008.55
2023-05-19T14:09:00.224Z,1008.56
2023-05-19T14:10:00.230Z,1008.60
2023-05-19T14:11:00.215Z,1008.51
2023-05-19T14:12:00.237Z,1008.54
2023-05-19T14:14:00.200Z,1008.53
2023-05-19T14:15:00.510Z,1008.53
2023-05-19T14:16:00.288Z,1008.53
2023-05-19T14:17:00.133Z,1008.44
2023-05-19T14:18:00.217Z,1008.47
2023-05-19T14:19:00.198Z,1008.53
2023-05-19T14:20:00.168Z,1008.49
2023-05-19T14:21:00.118Z,1008.49
2023-05-19T14:22:00.107Z,1008.47
2023-05-19T14:23:00.125Z,1008.47
2023-05-19T14:24:00.129Z,1008.51
2023-05-19T14:25:00.062Z,1008.53
2023-05-19T14:26:00.137Z,1008.54
2023-05-19T14:27:00.027Z,1008.55
2023-05-19T14:28:00.045Z,1008.57
2023-05-19T14:29:00.027Z,1008.59
2023-05-19T14:30:00.065Z,1008.58
2023-05-19T14:30:59.998Z,1008.56
2023-05-19T14:32:00.005Z,1008.54
2023-05-19T14:33:00.022Z,1008.52
2023-05-19T14:34:00.016Z,1008.53
2023-05-19T14:34:59.942Z,1008.60
2023-05-19T14:36:00.004Z,1008.58
2023-05-19T14:36:59.942Z,1008.52
2023-05-19T14:37:59.917Z,1008.54
2023-05-19T14:38:59.934Z,1008.54
2023-05-19T14:39:59.903Z,1008.52
2023-05-19T14:40:59.899Z,1008.52
2023-05-19T14:41:59.922Z,1008.55
2023-05-19T14:42:59.850Z,1008.50
2023-05-19T14:43:59.854Z,1008.55
2023-05-19T14:44:59.883Z,1008.53
2023-05-19T14:45:59.928Z,1008.54
2023-05-19T14:46:59.870Z,1008.53
2023-05-19T14:47:59.844Z,1008.52
2023-05-19T14:48:59.786Z,1008.50
2023-05-19T14:49:59.809Z,1008.50
2023-05-19T14:50:59.883Z,1008.42
2023-05-19T14:51:59.854Z,1008.41
2023-05-19T14:52:59.750Z,1008.38
2023-05-19T14:53:59.766Z,1008.39
2023-05-19T14:54:59.771Z,1008.37
2023-05-19T14:55:59.849Z,1008.38
2023-05-19T14:56:59.733Z,1008.42
2023-05-19T14:57:59.743Z,1008.42
2023-05-19T14:58:59.713Z,1008.45
2023-05-19T14:59:59.709Z,1008.45
2023-05-19T15:00:59.797Z,1008.44
2023-05-19T15:01:59.701Z,1008.45
2023-05-19T15:02:59.696Z,1008.46
2023-05-19T15:03:59.735Z,1008.42
2023-05-19T15:04:59.619Z,1008.44
2023-05-19T15:05:59.709Z,1008.47
2023-05-19T15:07:09.674Z,1008.45
2023-05-19T15:07:59.633Z,1008.47
2023-05-19T15:08:59.626Z,1008.46
2023-05-19T15:09:59.619Z,1008.45
2023-05-19T15:10:59.642Z,1008.45
2023-05-19T15:11:59.588Z,1008.48
2023-05-19T15:12:59.560Z,1008.42
2023-05-19T15:13:59.547Z,1008.42
2023-05-19T15:14:59.523Z,1008.45
2023-05-19T15:16:15.635Z,1008.43
2023-05-19T15:16:59.586Z,1008.40
2023-05-19T15:17:59.605Z,1008.36
2023-05-19T15:18:59.534Z,1008.36
2023-05-19T15:19:59.503Z,1008.38
2023-05-19T15:20:59.518Z,1008.39
2023-05-19T15:21:59.481Z,1008.41
2023-05-19T15:22:59.445Z,1008.46
2023-05-19T15:23:59.460Z,1008.48
2023-05-19T15:24:59.422Z,1008.49
2023-05-19T15:25:59.487Z,1008.48
2023-05-19T15:26:59.446Z,1008.49
2023-05-19T15:27:59.431Z,1008.45
2023-05-19T15:28:59.370Z,1008.46
2023-05-19T15:29:59.384Z,1008.46
2023-05-19T15:30:59.491Z,1008.45
2023-05-19T15:31:59.416Z,1008.42
2023-05-19T15:32:59.398Z,1008.41
2023-05-19T15:33:59.366Z,1008.45
2023-05-19T15:34:59.306Z,1008.41
2023-05-19T15:35:59.372Z,1008.44
2023-05-19T15:36:59.307Z,1008.44
2023-05-19T15:37:59.299Z,1008.44
2023-05-19T15:38:59.270Z,1008.45
2023-05-19T15:39:59.356Z,1008.47
2023-05-19T15:40:59.249Z,1008.43
2023-05-19T15:41:59.281Z,1008.44
2023-05-19T15:42:59.218Z,1008.45
2023-05-19T15:43:59.240Z,1008.46
2023-05-19T15:44:59.205Z,1008.41
2023-05-19T15:45:59.323Z,1008.45
2023-05-19T15:46:59.189Z,1008.39
2023-05-19T15:47:59.203Z,1008.42
2023-05-19T15:48:59.188Z,1008.47
2023-05-19T15:49:59.249Z,1008.43
2023-05-19T15:50:59.211Z,1008.48
2023-05-19T15:51:59.165Z,1008.47
2023-05-19T15:52:59.121Z,1008.47
2023-05-19T15:53:59.150Z,1008.49
2023-05-19T15:54:59.166Z,1008.47
2023-05-19T15:55:59.153Z,1008.46
2023-05-19T15:56:59.171Z,1008.46
2023-05-19T15:57:59.078Z,1008.44
2023-05-19T15:58:59.040Z,1008.44
2023-05-19T15:59:59.064Z,1008.44
2023-05-19T16:00:59.102Z,1008.42
2023-05-19T16:01:59.108Z,1008.43
2023-05-19T16:02:59.130Z,1008.43
2023-05-19T16:03:59.124Z,1008.43
2023-05-19T16:04:59.002Z,1008.43
2023-05-19T16:05:59.061Z,1008.46
2023-05-19T16:06:58.970Z,1008.41
2023-05-19T16:07:58.975Z,1008.40
2023-05-19T16:08:58.991Z,1008.40
2023-05-19T16:09:58.965Z,1008.41
2023-05-19T16:10:58.982Z,1008.41
2023-05-19T16:11:58.956Z,1008.40
2023-05-19T16:12:58.929Z,1008.40
2023-05-19T16:13:58.916Z,1008.45
2023-05-19T16:14:58.917Z,1008.46
2023-05-19T16:15:58.953Z,1008.44
2023-05-19T16:16:59.721Z,1008.40
2023-05-19T16:17:58.933Z,1008.38
2023-05-19T16:18:58.920Z,1008.37
2023-05-19T16:19:58.852Z,1008.38
2023-05-19T16:20:58.889Z,1008.40
2023-05-19T16:21:58.931Z,1008.44
2023-05-19T16:22:58.798Z,1008.35
2023-05-19T16:23:58.850Z,1008.37
2023-05-19T16:24:58.805Z,1008.36
2023-05-19T16:25:58.793Z,1008.35
2023-05-19T16:26:58.797Z,1008.36
2023-05-19T16:27:58.745Z,1008.37
2023-05-19T16:28:58.761Z,1008.40
2023-05-19T16:29:58.766Z,1008.35
2023-05-19T16:30:58.784Z,1008.32
2023-05-19T16:31:58.796Z,1008.33
2023-05-19T16:32:58.752Z,1008.34
2023-05-19T16:33:58.722Z,1008.34
2023-05-19T16:34:58.694Z,1008.30
2023-05-19T16:35:58.776Z,1008.32
2023-05-19T16:36:58.678Z,1008.28